Time;durP1;ratioP1;P1;durP2;ratioP2;P2;SDS_P1;SDS_P2;PMS_P1;PMS_P2;Temp;Humidity;BMP_temperature;BMP_pressure;BME280_temperature;BME280_humidity;BME280_pressure;Samples;Min_cycle;Max_cycle;Signal;HPM_P1;HPM_P2
2022/08/09 00:02:01;;;;;;;3.25;2.70;;;;;;;;;;5018850;28;20511;-71
2022/08/09 00:04:27;;;;;;;3.28;2.70;;;;;;;;;;5038099;28;20044;-71
2022/08/09 00:06:52;;;;;;;5.13;2.78;;;;;;;;;;5031645;28;20025;-71
2022/08/09 00:09:17;;;;;;;3.85;2.60;;;;;;;;;;5025628;28;20519;-70
2022/08/09 00:11:44;;;;;;;3.10;2.80;;;;;;;;;;5025791;28;20124;-71
2022/08/09 00:14:09;;;;;;;2.88;2.22;;;;;;;;;;5026160;28;20026;-71
2022/08/09 00:16:35;;;;;;;4.45;2.70;;;;;;;;;;5025450;28;20028;-71
2022/08/09 00:19:00;;;;;;;2.92;2.63;;;;;;;;;;5031107;28;20044;-71
2022/08/09 00:21:26;;;;;;;4.30;2.90;;;;;;;;;;5045091;28;20525;-71
2022/08/09 00:23:51;;;;;;;3.15;2.47;;;;;;;;;;5045755;28;20029;-71
2022/08/09 00:26:16;;;;;;;3.30;2.60;;;;;;;;;;5045512;28;20024;-71
2022/08/09 00:28:42;;;;;;;4.40;2.60;;;;;;;;;;5045412;28;20033;-71
2022/08/09 00:31:07;;;;;;;4.22;2.80;;;;;;;;;;5045525;28;20394;-71
2022/08/09 00:33:34;;;;;;;4.43;2.75;;;;;;;;;;5045176;28;20346;-71
2022/08/09 00:36:00;;;;;;;3.58;3.00;;;;;;;;;;5031446;28;20045;-72
2022/08/09 00:38:25;;;;;;;3.60;2.95;;;;;;;;;;5026651;28;20021;-71
2022/08/09 00:40:51;;;;;;;5.05;2.83;;;;;;;;;;5024776;28;20172;-71
2022/08/09 00:43:16;;;;;;;4.63;2.83;;;;;;;;;;5025805;28;20036;-71
2022/08/09 00:45:41;;;;;;;4.88;2.85;;;;;;;;;;5023189;28;20037;-71
2022/08/09 00:48:07;;;;;;;4.70;3.05;;;;;;;;;;5024927;28;20025;-71
2022/08/09 00:50:32;;;;;;;3.83;2.75;;;;;;;;;;5005174;28;20057;-71
2022/08/09 00:52:58;;;;;;;3.45;2.78;;;;;;;;;;5028310;28;20108;-71
2022/08/09 00:55:24;;;;;;;4.55;2.97;;;;;;;;;;5044083;28;20021;-71
2022/08/09 00:57:49;;;;;;;3.85;2.97;;;;;;;;;;5044841;28;20371;-71
2022/08/09 01:00:16;;;;;;;3.78;2.38;;;;;;;;;;5044714;28;20098;-71
2022/08/09 01:03:10;;;;;;;3.90;2.90;;;;;;;;;;5045583;28;20469;-71
2022/08/09 01:06:00;;;;;;;4.78;3.08;;;;;;;;;;5044432;28;20036;-71
2022/08/09 01:08:39;;;;;;;3.55;2.95;;;;;;;;;;5037132;28;20044;-71
2022/08/09 01:11:40;;;;;;;3.20;2.90;;;;;;;;;;5029037;28;20029;-71
2022/08/09 01:14:14;;;;;;;4.65;2.97;;;;;;;;;;5009971;28;20037;-71
2022/08/09 01:16:43;;;;;;;3.05;2.75;;;;;;;;;;5015367;28;20110;-71
2022/08/09 01:19:37;;;;;;;3.85;2.70;;;;;;;;;;5027352;28;20061;-71
2022/08/09 01:22:13;;;;;;;5.28;3.15;;;;;;;;;;5028475;28;20076;-71
2022/08/09 01:24:59;;;;;;;3.22;2.92;;;;;;;;;;5034149;28;20118;-71
2022/08/09 01:27:25;;;;;;;5.50;2.90;;;;;;;;;;5038880;28;20487;-71
2022/08/09 01:29:57;;;;;;;4.72;3.15;;;;;;;;;;5040018;28;20325;-71
2022/08/09 01:32:32;;;;;;;3.63;2.88;;;;;;;;;;5049282;28;20025;-71
2022/08/09 01:35:00;;;;;;;3.50;3.10;;;;;;;;;;5049048;28;20459;-71
2022/08/09 01:37:27;;;;;;;3.17;2.88;;;;;;;;;;5048633;28;20458;-71
2022/08/09 01:39:54;;;;;;;3.85;3.10;;;;;;;;;;5034045;28;20038;-71
2022/08/09 01:42:21;;;;;;;4.40;3.05;;;;;;;;;;5039646;28;20353;-73
2022/08/09 01:44:48;;;;;;;4.60;3.50;;;;;;;;;;5041598;28;20048;-73
2022/08/09 01:47:14;;;;;;;4.75;3.10;;;;;;;;;;5028929;28;20044;-73
2022/08/09 01:49:41;;;;;;;5.03;3.10;;;;;;;;;;5027564;28;20482;-73
2022/08/09 01:52:12;;;;;;;3.47;2.90;;;;;;;;;;5036142;28;20109;-73
2022/08/09 01:54:43;;;;;;;3.50;3.20;;;;;;;;;;5028077;28;20554;-73
2022/08/09 01:57:14;;;;;;;4.10;3.25;;;;;;;;;;5026770;28;20041;-73
2022/08/09 01:59:43;;;;;;;4.78;3.28;;;;;;;;;;5028099;28;20029;-73
2022/08/09 02:02:09;;;;;;;3.25;2.97;;;;;;;;;;5034919;28;20655;-73
2022/08/09 02:04:37;;;;;;;4.75;3.28;;;;;;;;;;5039894;28;20395;-73
2022/08/09 02:07:10;;;;;;;5.38;3.03;;;;;;;;;;5048024;28;20021;-73
2022/08/09 02:09:40;;;;;;;3.45;3.10;;;;;;;;;;5047520;28;20522;-72
2022/08/09 02:12:08;;;;;;;3.42;3.03;;;;;;;;;;5047742;28;20404;-73
2022/08/09 02:14:36;;;;;;;3.78;3.38;;;;;;;;;;5033997;28;20428;-73
2022/08/09 02:17:01;;;;;;;5.25;3.58;;;;;;;;;;5043164;28;20040;-73
2022/08/09 02:19:27;;;;;;;5.38;3.35;;;;;;;;;;5027644;28;20079;-73
2022/08/09 02:21:56;;;;;;;5.03;3.25;;;;;;;;;;5028572;28;20116;-73
2022/08/09 02:24:34;;;;;;;5.15;3.10;;;;;;;;;;5027450;28;20029;-73
2022/08/09 02:27:02;;;;;;;3.33;3.03;;;;;;;;;;5027870;28;20030;-73
2022/08/09 02:29:32;;;;;;;4.90;3.40;;;;;;;;;;5027436;28;20030;-73
2022/08/09 02:32:01;;;;;;;5.15;3.13;;;;;;;;;;5033521;28;20486;-73
2022/08/09 02:34:31;;;;;;;3.40;3.10;;;;;;;;;;5039274;28;20033;-73
2022/08/09 02:36:59;;;;;;;4.45;3.45;;;;;;;;;;5047339;28;20044;-73
2022/08/09 02:39:37;;;;;;;3.47;3.17;;;;;;;;;;5047592;28;20082;-72
2022/08/09 02:42:07;;;;;;;3.30;3.00;;;;;;;;;;5029426;28;20104;-73
2022/08/09 02:44:39;;;;;;;5.40;3.28;;;;;;;;;;5047237;28;20334;-73
2022/08/09 02:47:07;;;;;;;3.58;3.13;;;;;;;;;;5024602;28;20483;-73
2022/08/09 02:49:39;;;;;;;3.08;2.78;;;;;;;;;;5033910;28;20114;-73
2022/08/09 02:52:07;;;;;;;3.50;3.10;;;;;;;;;;5038970;28;20505;-71
2022/08/09 02:54:33;;;;;;;3.45;3.00;;;;;;;;;;5034500;28;20493;-72
2022/08/09 02:57:01;;;;;;;4.20;3.38;;;;;;;;;;5025513;28;20064;-73
2022/08/09 02:59:27;;;;;;;3.28;2.88;;;;;;;;;;5027433;28;20040;-73
2022/08/09 03:01:57;;;;;;;4.50;3.05;;;;;;;;;;5027350;28;20025;-73
2022/08/09 03:04:24;;;;;;;4.25;3.22;;;;;;;;;;5019781;28;20038;-73
2022/08/09 03:06:51;;;;;;;4.07;3.00;;;;;;;;;;5038981;28;20048;-73
2022/08/09 03:09:19;;;;;;;3.20;2.92;;;;;;;;;;5028499;28;20096;-73
2022/08/09 03:11:46;;;;;;;5.13;3.10;;;;;;;;;;5026365;28;20129;-72
2022/08/09 03:14:12;;;;;;;3.17;2.85;;;;;;;;;;5027472;28;20034;-73
2022/08/09 03:16:38;;;;;;;5.03;3.28;;;;;;;;;;5026688;28;20494;-72
2022/08/09 03:19:03;;;;;;;5.03;3.33;;;;;;;;;;5025604;28;20132;-72
2022/08/09 03:21:30;;;;;;;7.15;2.90;;;;;;;;;;5036537;28;20268;-72
2022/08/09 03:23:55;;;;;;;5.90;3.30;;;;;;;;;;5031688;28;20072;-72
2022/08/09 03:26:21;;;;;;;4.30;3.08;;;;;;;;;;5024444;28;20518;-72
2022/08/09 03:28:48;;;;;;;3.90;3.10;;;;;;;;;;5020370;28;20033;-73
2022/08/09 03:31:14;;;;;;;4.97;3.03;;;;;;;;;;5024179;28;20111;-73
2022/08/09 03:33:41;;;;;;;5.60;3.58;;;;;;;;;;5026782;28;20061;-72
2022/08/09 03:36:07;;;;;;;4.32;3.40;;;;;;;;;;5023757;28;20112;-72
2022/08/09 03:38:34;;;;;;;4.80;3.65;;;;;;;;;;5037352;28;20025;-73
2022/08/09 03:40:59;;;;;;;3.92;3.08;;;;;;;;;;5046312;28;20024;-72
2022/08/09 03:43:28;;;;;;;4.65;3.28;;;;;;;;;;5041310;28;20120;-73
2022/08/09 03:45:54;;;;;;;5.07;3.35;;;;;;;;;;5025808;28;20030;-73
2022/08/09 03:48:24;;;;;;;5.95;3.20;;;;;;;;;;5024697;28;20373;-73
2022/08/09 03:50:51;;;;;;;4.72;3.10;;;;;;;;;;5025670;28;20053;-73
2022/08/09 03:53:18;;;;;;;4.03;3.40;;;;;;;;;;5018243;28;20029;-73
2022/08/09 03:55:44;;;;;;;4.90;3.05;;;;;;;;;;5037277;28;20200;-73
2022/08/09 03:58:09;;;;;;;4.18;3.20;;;;;;;;;;5029055;28;20028;-73
2022/08/09 04:00:36;;;;;;;3.72;3.10;;;;;;;;;;5026071;28;20040;-73
2022/08/09 04:03:02;;;;;;;5.82;3.33;;;;;;;;;;5026047;28;20025;-73
2022/08/09 04:05:27;;;;;;;5.50;3.40;;;;;;;;;;5025666;28;20055;-73
2022/08/09 04:07:53;;;;;;;4.38;3.08;;;;;;;;;;5024246;28;20037;-73
2022/08/09 04:10:21;;;;;;;4.40;3.60;;;;;;;;;;5033548;28;20052;-73
2022/08/09 04:12:52;;;;;;;4.70;3.33;;;;;;;;;;5032592;28;20029;-72
2022/08/09 04:15:19;;;;;;;3.78;3.28;;;;;;;;;;5025973;28;20526;-73
2022/08/09 04:17:45;;;;;;;5.50;2.83;;;;;;;;;;5025598;28;20556;-73
2022/08/09 04:20:11;;;;;;;4.45;3.25;;;;;;;;;;5024011;28;20029;-73
2022/08/09 04:22:37;;;;;;;6.85;3.20;;;;;;;;;;5026043;28;20577;-72
2022/08/09 04:25:04;;;;;;;5.35;3.22;;;;;;;;;;5023675;28;20511;-72
2022/08/09 04:27:29;;;;;;;4.93;3.30;;;;;;;;;;5034193;28;20029;-73
2022/08/09 04:29:55;;;;;;;4.32;3.40;;;;;;;;;;5025301;28;20364;-73
2022/08/09 04:32:20;;;;;;;4.93;3.28;;;;;;;;;;5024089;28;20037;-73
2022/08/09 04:34:46;;;;;;;4.57;3.45;;;;;;;;;;5025750;28;20030;-73
2022/08/09 04:37:11;;;;;;;3.88;3.22;;;;;;;;;;5021750;28;20450;-73
2022/08/09 04:39:36;;;;;;;6.07;3.60;;;;;;;;;;5024078;28;20030;-72
2022/08/09 04:42:02;;;;;;;7.47;3.88;;;;;;;;;;5033343;28;20071;-72
2022/08/09 04:44:27;;;;;;;4.60;3.75;;;;;;;;;;5030653;28;20037;-73
2022/08/09 04:46:53;;;;;;;5.00;3.50;;;;;;;;;;5025501;28;20045;-72
2022/08/09 04:49:18;;;;;;;5.05;4.13;;;;;;;;;;5025022;28;20475;-72
2022/08/09 04:51:43;;;;;;;6.07;4.22;;;;;;;;;;5025221;28;20430;-73
2022/08/09 04:54:08;;;;;;;5.53;3.72;;;;;;;;;;5019872;28;20040;-73
2022/08/09 04:56:34;;;;;;;5.85;4.05;;;;;;;;;;5021180;28;20049;-73
2022/08/09 04:58:59;;;;;;;4.35;3.63;;;;;;;;;;5040371;28;20021;-72
2022/08/09 05:01:24;;;;;;;4.18;3.25;;;;;;;;;;5025858;28;20414;-73
2022/08/09 05:03:50;;;;;;;4.38;3.50;;;;;;;;;;5025521;28;20029;-73
2022/08/09 05:06:15;;;;;;;5.28;3.67;;;;;;;;;;5022641;28;20499;-72
2022/08/09 05:08:40;;;;;;;4.75;3.50;;;;;;;;;;5025066;28;20317;-73
2022/08/09 05:11:06;;;;;;;5.15;3.40;;;;;;;;;;5023645;28;20686;-72
2022/08/09 05:13:31;;;;;;;5.35;3.53;;;;;;;;;;5026836;28;20043;-73
2022/08/09 05:15:56;;;;;;;5.15;3.08;;;;;;;;;;5037919;28;20032;-73
2022/08/09 05:18:23;;;;;;;3.85;3.13;;;;;;;;;;5014517;28;20068;-72
2022/08/09 05:20:49;;;;;;;3.53;3.10;;;;;;;;;;5038109;28;20425;-73
2022/08/09 05:23:14;;;;;;;6.00;4.03;;;;;;;;;;5024005;28;20371;-72
2022/08/09 05:25:40;;;;;;;7.80;2.90;;;;;;;;;;5039572;28;20481;-73
2022/08/09 05:28:05;;;;;;;5.35;3.03;;;;;;;;;;5022883;28;20404;-72
2022/08/09 05:30:31;;;;;;;3.05;2.65;;;;;;;;;;5021293;28;20124;-72
2022/08/09 05:32:56;;;;;;;2.95;2.65;;;;;;;;;;5019900;28;20033;-73
2022/08/09 05:35:21;;;;;;;3.97;2.65;;;;;;;;;;5024743;28;20479;-73
2022/08/09 05:37:47;;;;;;;3.55;2.92;;;;;;;;;;5015848;28;20029;-72
2022/08/09 05:40:13;;;;;;;3.15;2.42;;;;;;;;;;5030903;28;20082;-72
2022/08/09 05:42:39;;;;;;;5.80;2.85;;;;;;;;;;5025168;28;20936;-73
2022/08/09 05:45:05;;;;;;;3.95;2.95;;;;;;;;;;5032495;28;20479;-72
2022/08/09 05:47:31;;;;;;;6.35;2.70;;;;;;;;;;5010530;28;20056;-73
2022/08/09 05:49:56;;;;;;;2.92;2.53;;;;;;;;;;5016456;28;20038;-73
2022/08/09 05:52:22;;;;;;;2.80;2.30;;;;;;;;;;5033269;28;20470;-72
2022/08/09 05:54:48;;;;;;;3.53;2.58;;;;;;;;;;5046676;28;20494;-71
2022/08/09 05:57:13;;;;;;;3.13;2.75;;;;;;;;;;5034593;28;20029;-73
2022/08/09 05:59:38;;;;;;;4.68;2.65;;;;;;;;;;5042679;28;20458;-73
2022/08/09 06:02:03;;;;;;;5.20;2.67;;;;;;;;;;5035188;28;20526;-73
2022/08/09 06:04:29;;;;;;;5.10;3.10;;;;;;;;;;5019989;28;20030;-74
2022/08/09 06:06:54;;;;;;;4.40;2.80;;;;;;;;;;5012019;28;20030;-71
2022/08/09 06:09:20;;;;;;;3.65;2.20;;;;;;;;;;5015507;28;20406;-74
2022/08/09 06:11:45;;;;;;;6.75;2.70;;;;;;;;;;5006676;28;20044;-72
2022/08/09 06:14:11;;;;;;;3.45;2.55;;;;;;;;;;5009176;28;20511;-72
2022/08/09 06:16:36;;;;;;;4.95;2.70;;;;;;;;;;5015028;28;20034;-75
2022/08/09 06:19:02;;;;;;;4.03;2.50;;;;;;;;;;5013864;28;20029;-74
2022/08/09 06:21:27;;;;;;;7.65;2.50;;;;;;;;;;5036679;28;20028;-75
2022/08/09 06:23:54;;;;;;;5.10;2.95;;;;;;;;;;5024215;28;20674;-73
2022/08/09 06:26:21;;;;;;;4.57;2.30;;;;;;;;;;5040399;28;20318;-75
2022/08/09 06:28:47;;;;;;;5.65;2.67;;;;;;;;;;5020402;28;20475;-73
2022/08/09 06:31:12;;;;;;;4.30;2.63;;;;;;;;;;5030920;28;20253;-75
2022/08/09 06:33:37;;;;;;;4.13;2.60;;;;;;;;;;5025761;28;20022;-73
2022/08/09 06:36:03;;;;;;;7.95;2.88;;;;;;;;;;5012391;28;20534;-74
2022/08/09 06:38:28;;;;;;;7.53;2.67;;;;;;;;;;5018555;28;20072;-75
2022/08/09 06:40:54;;;;;;;3.72;2.22;;;;;;;;;;5021590;28;20032;-76
2022/08/09 06:43:19;;;;;;;6.32;2.05;;;;;;;;;;5035263;28;20052;-75
2022/08/09 06:45:44;;;;;;;6.82;2.90;;;;;;;;;;5031412;28;20037;-76
2022/08/09 06:48:11;;;;;;;3.80;2.42;;;;;;;;;;5030698;28;20123;-74
2022/08/09 06:50:36;;;;;;;4.95;2.67;;;;;;;;;;5017968;28;20261;-77
2022/08/09 06:53:03;;;;;;;6.90;2.47;;;;;;;;;;5017254;28;20233;-76
2022/08/09 06:55:31;;;;;;;3.85;2.25;;;;;;;;;;5024739;28;20028;-75
2022/08/09 06:57:57;;;;;;;6.88;2.58;;;;;;;;;;5022587;28;20056;-75
2022/08/09 07:00:22;;;;;;;3.50;2.38;;;;;;;;;;5021507;28;20048;-74
2022/08/09 07:02:49;;;;;;;11.32;2.80;;;;;;;;;;5022305;28;20050;-75
2022/08/09 07:05:14;;;;;;;6.03;2.53;;;;;;;;;;5019785;28;20025;-74
2022/08/09 07:07:40;;;;;;;5.25;2.38;;;;;;;;;;5016732;28;20040;-73
2022/08/09 07:10:05;;;;;;;5.72;2.30;;;;;;;;;;5022059;28;20018;-75
2022/08/09 07:12:31;;;;;;;4.45;2.30;;;;;;;;;;5019342;28;20041;-76
2022/08/09 07:14:56;;;;;;;7.22;2.80;;;;;;;;;;5024428;28;20059;-72
2022/08/09 07:17:21;;;;;;;2.58;2.03;;;;;;;;;;5022049;28;20025;-77
2022/08/09 07:19:47;;;;;;;6.40;2.47;;;;;;;;;;5025694;28;20064;-76
2022/08/09 07:22:12;;;;;;;2.30;2.10;;;;;;;;;;5028400;28;20025;-76
2022/08/09 07:24:37;;;;;;;2.17;1.90;;;;;;;;;;5015485;28;20052;-77
2022/08/09 07:27:03;;;;;;;4.65;2.47;;;;;;;;;;5018836;28;20032;-75
2022/08/09 07:29:29;;;;;;;3.10;2.00;;;;;;;;;;5021558;28;20484;-74
2022/08/09 07:31:54;;;;;;;3.17;2.40;;;;;;;;;;5019432;28;20026;-75
2022/08/09 07:34:20;;;;;;;4.63;2.53;;;;;;;;;;5023899;28;20406;-74
2022/08/09 07:36:46;;;;;;;3.88;2.15;;;;;;;;;;5023173;28;20029;-75
2022/08/09 07:39:11;;;;;;;2.22;1.98;;;;;;;;;;5032908;28;20056;-70
2022/08/09 07:41:37;;;;;;;3.30;2.20;;;;;;;;;;5020619;28;20108;-74
2022/08/09 07:44:02;;;;;;;5.88;2.60;;;;;;;;;;5037347;28;20052;-75
2022/08/09 07:46:28;;;;;;;3.45;2.10;;;;;;;;;;5013390;28;20022;-74
2022/08/09 07:48:54;;;;;;;2.35;2.15;;;;;;;;;;4991446;28;20025;-74
2022/08/09 07:51:19;;;;;;;5.13;2.53;;;;;;;;;;5033892;28;20107;-74
2022/08/09 07:53:45;;;;;;;5.90;2.45;;;;;;;;;;5033464;28;20025;-73
2022/08/09 07:56:10;;;;;;;3.15;2.20;;;;;;;;;;5032692;28;20426;-75
2022/08/09 07:58:36;;;;;;;4.78;2.75;;;;;;;;;;5025252;28;20051;-74
2022/08/09 08:01:01;;;;;;;4.03;2.70;;;;;;;;;;5036871;28;20359;-74
2022/08/09 08:03:26;;;;;;;3.22;2.25;;;;;;;;;;5021212;28;20092;-76
2022/08/09 08:05:52;;;;;;;4.45;2.10;;;;;;;;;;5032294;28;20029;-76
2022/08/09 08:08:17;;;;;;;2.97;1.95;;;;;;;;;;5023664;28;20041;-75
2022/08/09 08:10:43;;;;;;;4.95;2.40;;;;;;;;;;5027600;28;20383;-75
2022/08/09 08:13:08;;;;;;;5.18;2.20;;;;;;;;;;5013192;28;20041;-74
2022/08/09 08:15:34;;;;;;;4.03;2.05;;;;;;;;;;5031885;28;20075;-77
2022/08/09 08:17:59;;;;;;;2.38;1.98;;;;;;;;;;5013252;28;20049;-76
2022/08/09 08:20:27;;;;;;;3.93;2.00;;;;;;;;;;5030542;28;20029;-75
2022/08/09 08:22:52;;;;;;;4.28;2.10;;;;;;;;;;5035761;28;20274;-76
2022/08/09 08:25:17;;;;;;;2.87;1.90;;;;;;;;;;5028479;28;20029;-75
2022/08/09 08:27:43;;;;;;;4.97;2.17;;;;;;;;;;5041045;28;20324;-75
2022/08/09 08:30:10;;;;;;;4.27;1.90;;;;;;;;;;5026937;28;20026;-75
2022/08/09 08:32:35;;;;;;;3.90;1.50;;;;;;;;;;5031124;28;20280;-72
2022/08/09 08:35:01;;;;;;;4.22;2.08;;;;;;;;;;5035716;28;20448;-73
2022/08/09 08:37:27;;;;;;;5.97;1.80;;;;;;;;;;5010120;28;20233;-75
2022/08/09 08:39:53;;;;;;;2.95;1.80;;;;;;;;;;5035828;28;20279;-73
2022/08/09 08:42:20;;;;;;;3.88;2.13;;;;;;;;;;5021556;28;20026;-75
2022/08/09 08:44:50;;;;;;;3.05;2.05;;;;;;;;;;5023404;28;20033;-75
2022/08/09 08:47:15;;;;;;;4.35;2.00;;;;;;;;;;5020934;28;20079;-73
2022/08/09 08:49:41;;;;;;;5.38;2.13;;;;;;;;;;5018208;28;20034;-74
2022/08/09 08:52:07;;;;;;;4.78;1.92;;;;;;;;;;5018324;28;20663;-74
2022/08/09 08:54:33;;;;;;;4.55;1.70;;;;;;;;;;5024725;28;20491;-73
2022/08/09 08:56:59;;;;;;;5.30;1.77;;;;;;;;;;5015802;28;20053;-74
2022/08/09 08:59:24;;;;;;;2.50;1.90;;;;;;;;;;5020516;28;20057;-74
2022/08/09 09:01:50;;;;;;;5.07;1.85;;;;;;;;;;5039081;28;20028;-74
2022/08/09 09:04:18;;;;;;;4.97;1.92;;;;;;;;;;5039965;28;20120;-74
2022/08/09 09:06:44;;;;;;;4.30;1.80;;;;;;;;;;5027820;28;20544;-75
2022/08/09 09:09:13;;;;;;;3.60;1.70;;;;;;;;;;5028624;28;20128;-75
2022/08/09 09:11:40;;;;;;;5.28;1.90;;;;;;;;;;5014660;28;20046;-74
2022/08/09 09:14:14;;;;;;;7.35;2.63;;;;;;;;;;5030302;28;20021;-77
2022/08/09 09:16:39;;;;;;;3.80;1.70;;;;;;;;;;5017890;28;20036;-77
2022/08/09 09:19:08;;;;;;;3.95;1.77;;;;;;;;;;5005455;28;20033;-75
2022/08/09 09:21:33;;;;;;;4.65;1.80;;;;;;;;;;5015513;28;20025;-73
2022/08/09 09:24:06;;;;;;;5.15;1.50;;;;;;;;;;5023353;28;20521;-76
2022/08/09 09:26:33;;;;;;;4.43;1.83;;;;;;;;;;5026956;28;20037;-76
2022/08/09 09:28:59;;;;;;;6.68;1.65;;;;;;;;;;5011870;28;20025;-74
2022/08/09 09:31:26;;;;;;;2.78;1.60;;;;;;;;;;5033037;28;20029;-74
2022/08/09 09:33:51;;;;;;;4.13;1.63;;;;;;;;;;5035874;28;20224;-76
2022/08/09 09:36:17;;;;;;;3.90;1.80;;;;;;;;;;5024885;28;20160;-76
2022/08/09 09:38:45;;;;;;;2.57;1.70;;;;;;;;;;5018819;28;20468;-75
2022/08/09 09:41:29;;;;;;;7.90;2.15;;;;;;;;;;5024083;28;20291;-73
2022/08/09 09:43:57;;;;;;;3.58;1.80;;;;;;;;;;5028459;28;20500;-73
2022/08/09 09:46:33;;;;;;;8.07;1.80;;;;;;;;;;5032927;28;20471;-75
2022/08/09 09:49:03;;;;;;;6.10;1.90;;;;;;;;;;5024951;28;20502;-75
2022/08/09 09:51:30;;;;;;;2.47;1.73;;;;;;;;;;5029714;28;20064;-73
2022/08/09 09:54:22;;;;;;;5.75;1.80;;;;;;;;;;5026910;28;20045;-73
2022/08/09 09:56:49;;;;;;;1.85;1.50;;;;;;;;;;5023467;28;21325;-76
2022/08/09 09:59:19;;;;;;;2.15;1.70;;;;;;;;;;5024004;28;20378;-73
2022/08/09 10:01:45;;;;;;;4.47;1.90;;;;;;;;;;5045309;28;20537;-75
2022/08/09 10:04:18;;;;;;;2.85;1.65;;;;;;;;;;5040357;28;20133;-73
2022/08/09 10:06:45;;;;;;;3.70;1.80;;;;;;;;;;5042170;28;20037;-73
2022/08/09 10:09:12;;;;;;;2.38;1.70;;;;;;;;;;5028830;28;20132;-73
2022/08/09 10:11:39;;;;;;;3.47;1.40;;;;;;;;;;5023265;28;20495;-74
2022/08/09 10:14:04;;;;;;;5.63;1.80;;;;;;;;;;5021422;28;20285;-75
2022/08/09 10:16:36;;;;;;;4.47;1.63;;;;;;;;;;5025867;28;20387;-72
2022/08/09 10:19:06;;;;;;;1.73;1.55;;;;;;;;;;5017916;28;20083;-73
2022/08/09 10:21:33;;;;;;;3.15;1.70;;;;;;;;;;5034573;28;20550;-75
2022/08/09 10:24:00;;;;;;;3.05;1.60;;;;;;;;;;5033612;28;20036;-71
2022/08/09 10:26:26;;;;;;;4.15;2.10;;;;;;;;;;5039117;28;20080;-71
2022/08/09 10:28:53;;;;;;;3.22;1.58;;;;;;;;;;5039389;28;20411;-75
2022/08/09 10:31:18;;;;;;;2.80;1.50;;;;;;;;;;5046235;28;20033;-72
2022/08/09 10:33:43;;;;;;;4.97;1.85;;;;;;;;;;5033442;28;20080;-74
2022/08/09 10:36:10;;;;;;;2.50;1.65;;;;;;;;;;5037253;28;20035;-76
2022/08/09 10:38:37;;;;;;;7.30;1.70;;;;;;;;;;5042310;28;20025;-72
2022/08/09 10:41:04;;;;;;;4.15;1.40;;;;;;;;;;5038314;28;20426;-73
2022/08/09 10:43:29;;;;;;;2.67;1.30;;;;;;;;;;5040121;28;20057;-74
2022/08/09 10:45:59;;;;;;;2.78;1.40;;;;;;;;;;5047437;28;20378;-73
2022/08/09 10:48:39;;;;;;;2.78;1.73;;;;;;;;;;5043164;28;20052;-73
2022/08/09 10:51:18;;;;;;;3.60;1.50;;;;;;;;;;5045701;28;20065;-71
2022/08/09 10:53:54;;;;;;;2.65;1.60;;;;;;;;;;5043038;28;20515;-71
2022/08/09 10:56:22;;;;;;;2.88;1.50;;;;;;;;;;5042772;28;20025;-75
2022/08/09 10:58:52;;;;;;;2.65;1.45;;;;;;;;;;5034681;28;20210;-70
2022/08/09 11:01:36;;;;;;;3.75;1.40;;;;;;;;;;5030746;28;20025;-73
2022/08/09 11:04:07;;;;;;;4.95;1.58;;;;;;;;;;5026274;28;20418;-75
2022/08/09 11:06:34;;;;;;;1.75;1.38;;;;;;;;;;5027754;28;20505;-73
2022/08/09 11:09:00;;;;;;;3.83;1.77;;;;;;;;;;5040457;28;20230;-70
2022/08/09 11:11:56;;;;;;;2.08;1.30;;;;;;;;;;5027748;28;20377;-72
2022/08/09 11:14:53;;;;;;;1.52;1.42;;;;;;;;;;5034698;28;20363;-70
2022/08/09 11:17:21;;;;;;;2.08;1.60;;;;;;;;;;5025581;28;20515;-77
2022/08/09 11:20:00;;;;;;;2.22;1.50;;;;;;;;;;5034186;28;20028;-74
2022/08/09 11:22:41;;;;;;;1.45;1.25;;;;;;;;;;5043018;28;20316;-74
2022/08/09 11:25:10;;;;;;;1.45;1.20;;;;;;;;;;5031501;28;20059;-73
2022/08/09 11:27:42;;;;;;;6.20;1.80;;;;;;;;;;5031093;28;20035;-71
2022/08/09 11:30:09;;;;;;;2.08;1.65;;;;;;;;;;5022707;28;20092;-72
2022/08/09 11:32:42;;;;;;;2.42;1.42;;;;;;;;;;5013580;28;20454;-71
2022/08/09 11:35:17;;;;;;;2.00;1.60;;;;;;;;;;5012160;28;20022;-69
2022/08/09 11:37:44;;;;;;;1.65;1.55;;;;;;;;;;5025299;28;20029;-69
2022/08/09 11:40:15;;;;;;;3.67;1.73;;;;;;;;;;5048467;28;20287;-71
2022/08/09 11:42:42;;;;;;;1.70;1.58;;;;;;;;;;5040519;28;20531;-70
2022/08/09 11:45:29;;;;;;;3.42;1.40;;;;;;;;;;5044826;28;20087;-70
2022/08/09 11:48:00;;;;;;;4.68;1.95;;;;;;;;;;5024330;28;20114;-69
2022/08/09 11:50:27;;;;;;;1.80;1.40;;;;;;;;;;5037711;28;20025;-72
2022/08/09 11:53:12;;;;;;;4.53;1.70;;;;;;;;;;5040511;28;20047;-70
2022/08/09 11:55:40;;;;;;;4.22;1.70;;;;;;;;;;5031521;28;20120;-69
2022/08/09 11:58:14;;;;;;;3.38;1.48;;;;;;;;;;5035393;28;20553;-73
2022/08/09 12:00:52;;;;;;;2.47;1.73;;;;;;;;;;5030461;28;20033;-73
2022/08/09 12:03:25;;;;;;;1.83;1.40;;;;;;;;;;5040946;28;20032;-73
2022/08/09 12:05:53;;;;;;;4.15;1.58;;;;;;;;;;5036568;28;20045;-74
2022/08/09 12:08:20;;;;;;;4.82;1.50;;;;;;;;;;5024298;28;20025;-74
2022/08/09 12:10:54;;;;;;;4.53;1.40;;;;;;;;;;5028787;28;20028;-72
2022/08/09 12:13:33;;;;;;;5.00;2.22;;;;;;;;;;5027030;28;20031;-72
2022/08/09 12:16:03;;;;;;;3.78;1.60;;;;;;;;;;5034784;28;20071;-73
2022/08/09 12:18:29;;;;;;;3.17;1.70;;;;;;;;;;5028277;28;20025;-71
2022/08/09 12:20:55;;;;;;;3.45;1.40;;;;;;;;;;5045554;28;20112;-73
2022/08/09 12:23:21;;;;;;;2.38;1.92;;;;;;;;;;5037492;28;20113;-77
2022/08/09 12:25:48;;;;;;;3.65;1.75;;;;;;;;;;5045145;28;20033;-72
2022/08/09 12:28:16;;;;;;;3.10;1.48;;;;;;;;;;5033496;28;20033;-73
2022/08/09 12:30:43;;;;;;;4.00;1.88;;;;;;;;;;5021490;28;20034;-74
2022/08/09 12:33:09;;;;;;;4.20;1.60;;;;;;;;;;5031042;28;20753;-77
2022/08/09 12:35:35;;;;;;;1.63;1.42;;;;;;;;;;5032026;28;20040;-74
2022/08/09 12:38:24;;;;;;;3.90;1.75;;;;;;;;;;5038868;28;20108;-72
2022/08/09 12:40:51;;;;;;;5.05;1.60;;;;;;;;;;5031985;28;20040;-76
2022/08/09 12:43:21;;;;;;;4.35;1.60;;;;;;;;;;5040582;28;20433;-73
2022/08/09 12:45:48;;;;;;;1.60;1.50;;;;;;;;;;5032604;28;20045;-72
2022/08/09 12:48:14;;;;;;;4.03;1.33;;;;;;;;;;5037105;28;20483;-72
2022/08/09 12:50:41;;;;;;;3.78;1.58;;;;;;;;;;5035403;28;20112;-72
2022/08/09 12:53:36;;;;;;;3.42;1.70;;;;;;;;;;5030269;28;20025;-78
2022/08/09 12:56:16;;;;;;;2.75;1.50;;;;;;;;;;5037250;28;20045;-70
2022/08/09 12:59:02;;;;;;;1.85;1.50;;;;;;;;;;5020452;28;20492;-77
2022/08/09 13:01:28;;;;;;;4.82;1.55;;;;;;;;;;5019470;28;20033;-76
2022/08/09 13:04:01;;;;;;;2.45;1.35;;;;;;;;;;5020904;28;20025;-71
2022/08/09 13:06:31;;;;;;;5.07;1.40;;;;;;;;;;5036554;28;20032;-74
2022/08/09 13:09:04;;;;;;;2.03;1.48;;;;;;;;;;5034571;28;20558;-73
2022/08/09 13:11:31;;;;;;;2.47;1.40;;;;;;;;;;5036667;28;20033;-71
2022/08/09 13:13:58;;;;;;;3.47;1.48;;;;;;;;;;5036170;28;20547;-74
2022/08/09 13:16:38;;;;;;;3.45;1.60;;;;;;;;;;5028584;28;20123;-71
2022/08/09 13:19:03;;;;;;;2.50;1.48;;;;;;;;;;5037540;28;20108;-72
2022/08/09 13:21:29;;;;;;;4.05;1.55;;;;;;;;;;5034176;28;20108;-73
2022/08/09 13:24:09;;;;;;;4.30;1.63;;;;;;;;;;5033113;28;20060;-73
2022/08/09 13:26:49;;;;;;;3.38;1.98;;;;;;;;;;5028425;28;20018;-72
2022/08/09 13:29:18;;;;;;;2.22;1.60;;;;;;;;;;5034741;28;20391;-70
2022/08/09 13:32:05;;;;;;;2.35;1.60;;;;;;;;;;5024768;28;20086;-72
2022/08/09 13:34:32;;;;;;;2.20;1.65;;;;;;;;;;5025573;28;20087;-75
2022/08/09 13:37:00;;;;;;;2.22;1.50;;;;;;;;;;5036581;28;20116;-70
2022/08/09 13:39:26;;;;;;;2.15;1.38;;;;;;;;;;5023981;28;20490;-71
2022/08/09 13:41:52;;;;;;;3.33;1.80;;;;;;;;;;5042696;28;20442;-69
2022/08/09 13:44:17;;;;;;;2.17;1.40;;;;;;;;;;5027942;28;20105;-72
2022/08/09 13:46:45;;;;;;;2.85;1.80;;;;;;;;;;5039820;28;20450;-73
2022/08/09 13:49:10;;;;;;;2.15;1.48;;;;;;;;;;5038759;28;20537;-75
2022/08/09 13:51:35;;;;;;;4.78;1.50;;;;;;;;;;5039043;28;20017;-75
2022/08/09 13:54:01;;;;;;;5.55;1.60;;;;;;;;;;5023168;28;20036;-74
2022/08/09 13:56:26;;;;;;;1.50;1.38;;;;;;;;;;5041141;28;20032;-75
2022/08/09 13:58:52;;;;;;;4.50;1.90;;;;;;;;;;5038356;28;20035;-70
2022/08/09 14:01:18;;;;;;;1.48;1.38;;;;;;;;;;5035568;28;20028;-72
2022/08/09 14:03:44;;;;;;;3.00;1.40;;;;;;;;;;5032209;28;20481;-75
2022/08/09 14:06:10;;;;;;;1.92;1.50;;;;;;;;;;5036302;28;20040;-73
2022/08/09 14:08:36;;;;;;;2.85;1.50;;;;;;;;;;5040853;28;20033;-70
2022/08/09 14:11:01;;;;;;;4.25;1.58;;;;;;;;;;5035268;28;20029;-72
2022/08/09 14:13:27;;;;;;;2.85;1.83;;;;;;;;;;5028222;28;20380;-70
2022/08/09 14:15:52;;;;;;;3.03;1.30;;;;;;;;;;5034259;28;20033;-72
2022/08/09 14:18:17;;;;;;;3.90;1.40;;;;;;;;;;5038586;28;20066;-73
2022/08/09 14:20:43;;;;;;;4.47;1.90;;;;;;;;;;5037029;28;20283;-72
2022/08/09 14:23:08;;;;;;;6.47;1.80;;;;;;;;;;5035617;28;20029;-74
2022/08/09 14:25:33;;;;;;;3.33;1.70;;;;;;;;;;5026968;28;20116;-70
2022/08/09 14:27:59;;;;;;;4.15;1.70;;;;;;;;;;5038188;28;20278;-74
2022/08/09 14:30:24;;;;;;;3.38;1.45;;;;;;;;;;5039199;28;20068;-74
2022/08/09 14:32:49;;;;;;;2.75;1.50;;;;;;;;;;5024780;28;20152;-74
2022/08/09 14:35:15;;;;;;;5.07;1.60;;;;;;;;;;5019897;28;20069;-76
2022/08/09 14:37:40;;;;;;;4.05;1.77;;;;;;;;;;5043194;28;20072;-72
2022/08/09 14:40:06;;;;;;;8.88;2.17;;;;;;;;;;5043122;28;20033;-71
2022/08/09 14:42:31;;;;;;;3.88;1.60;;;;;;;;;;5033776;28;20523;-73
2022/08/09 14:44:56;;;;;;;3.80;1.60;;;;;;;;;;5029577;28;20087;-72
2022/08/09 14:47:22;;;;;;;3.88;1.73;;;;;;;;;;5041633;28;20845;-72
2022/08/09 14:49:47;;;;;;;4.27;1.90;;;;;;;;;;5033518;28;20024;-72